createdAt,value
2018-05-24T00:01:24.840Z,13.78
2018-05-24T00:03:53.263Z,13.80
2018-05-24T00:06:21.684Z,13.77
2018-05-24T00:08:50.924Z,13.77
2018-05-24T00:11:19.343Z,13.71
2018-05-24T00:13:47.792Z,13.73
2018-05-24T00:16:16.222Z,13.78
2018-05-24T00:18:44.666Z,13.83
2018-05-24T00:21:13.094Z,13.87
2018-05-24T00:23:41.553Z,13.94
2018-05-24T00:26:09.998Z,13.94
2018-05-24T00:28:38.469Z,13.93
2018-05-24T00:31:06.896Z,13.98
2018-05-24T00:33:35.368Z,13.96
2018-05-24T00:36:03.806Z,14.00
2018-05-24T00:38:32.252Z,14.03
2018-05-24T00:41:00.667Z,14.17
2018-05-24T00:43:29.129Z,14.25
2018-05-24T00:45:57.585Z,14.33
2018-05-24T00:48:26.033Z,14.28
2018-05-24T00:50:54.481Z,14.28
2018-05-24T00:53:22.932Z,14.26
2018-05-24T00:55:51.355Z,14.23
2018-05-24T00:58:19.821Z,14.12
2018-05-24T01:00:48.259Z,14.25
2018-05-24T01:03:16.706Z,14.30
2018-05-24T01:05:45.123Z,14.33
2018-05-24T01:08:13.592Z,14.36
2018-05-24T01:10:42.052Z,14.35
2018-05-24T01:13:10.487Z,14.32
2018-05-24T01:15:38.916Z,14.33
2018-05-24T01:18:07.384Z,14.38
2018-05-24T01:20:35.804Z,14.58
2018-05-24T01:23:04.250Z,14.49
2018-05-24T01:25:32.680Z,14.47
2018-05-24T01:28:01.157Z,14.46
2018-05-24T01:30:29.597Z,14.49
2018-05-24T01:32:58.827Z,14.53
2018-05-24T01:35:27.249Z,14.57
2018-05-24T01:37:55.708Z,14.58
2018-05-24T01:40:24.154Z,14.60
2018-05-24T01:42:53.368Z,14.61
2018-05-24T01:45:21.795Z,14.59
2018-05-24T01:47:50.247Z,14.56
2018-05-24T01:50:19.425Z,14.55
2018-05-24T01:52:47.903Z,14.47
2018-05-24T01:55:17.114Z,14.52
2018-05-24T01:57:45.533Z,14.45
2018-05-24T02:00:14.095Z,14.46
2018-05-24T02:02:42.426Z,14.46
2018-05-24T02:05:10.877Z,14.42
2018-05-24T02:07:39.330Z,14.42
2018-05-24T02:10:08.549Z,14.44
2018-05-24T02:12:36.964Z,14.43
2018-05-24T02:15:05.415Z,14.40
2018-05-24T02:17:33.871Z,14.30
2018-05-24T02:20:03.112Z,14.25
2018-05-24T02:22:31.537Z,14.31
2018-05-24T02:25:00.001Z,14.37
2018-05-24T02:27:28.460Z,14.33
2018-05-24T02:29:56.920Z,14.20
2018-05-24T02:32:26.133Z,14.17
2018-05-24T02:34:55.357Z,14.10
2018-05-24T02:37:23.810Z,14.09
2018-05-24T02:39:53.053Z,14.12
2018-05-24T02:42:21.519Z,14.10
2018-05-24T02:44:49.964Z,14.07
2018-05-24T02:47:18.403Z,13.99
2018-05-24T02:49:47.639Z,13.97
2018-05-24T02:52:16.141Z,13.95
2018-05-24T02:54:44.609Z,13.93
2018-05-24T02:57:13.043Z,13.90
2018-05-24T02:59:41.480Z,13.86
2018-05-24T03:02:09.909Z,13.80
2018-05-24T03:04:38.375Z,13.76
2018-05-24T03:07:07.564Z,13.49
2018-05-24T03:09:36.021Z,13.51
2018-05-24T03:12:04.455Z,13.53
2018-05-24T03:14:33.683Z,13.47
2018-05-24T03:17:02.134Z,13.50
2018-05-24T03:19:31.371Z,13.40
2018-05-24T03:21:59.801Z,13.29
2018-05-24T03:24:28.250Z,13.37
2018-05-24T03:26:56.699Z,13.31
2018-05-24T03:29:25.154Z,13.28
2018-05-24T03:31:53.566Z,13.29
2018-05-24T03:34:22.759Z,13.30
2018-05-24T03:36:51.976Z,13.33
2018-05-24T03:39:20.400Z,13.35
2018-05-24T03:41:48.866Z,13.23
2018-05-24T03:44:17.288Z,13.20
2018-05-24T03:46:45.741Z,13.12
2018-05-24T03:49:14.177Z,13.05
2018-05-24T03:51:43.390Z,13.06
2018-05-24T03:54:11.831Z,13.09
2018-05-24T03:56:40.295Z,13.00
2018-05-24T04:02:56.671Z,13.04
2018-05-24T04:05:25.118Z,12.91
2018-05-24T04:07:53.534Z,12.81
2018-05-24T04:10:21.968Z,12.79
2018-05-24T04:12:50.372Z,12.84
2018-05-24T04:15:18.821Z,12.88
2018-05-24T04:17:47.231Z,12.89
2018-05-24T04:20:15.635Z,12.92
2018-05-24T04:22:44.847Z,12.93
2018-05-24T04:25:13.259Z,12.97
2018-05-24T04:27:41.688Z,13.06
2018-05-24T04:30:10.093Z,13.17
2018-05-24T04:32:39.295Z,13.26
2018-05-24T04:35:08.469Z,13.33
2018-05-24T04:37:36.923Z,13.52
2018-05-24T04:40:05.365Z,13.76
2018-05-24T04:42:33.856Z,13.86
2018-05-24T04:45:02.275Z,13.84
2018-05-24T04:47:30.757Z,13.90
2018-05-24T04:49:59.163Z,14.01
2018-05-24T04:52:27.632Z,14.10
2018-05-24T04:54:56.090Z,14.12
2018-05-24T04:57:24.666Z,14.16
2018-05-24T04:59:53.087Z,14.09
2018-05-24T05:02:21.588Z,14.26
2018-05-24T05:04:50.012Z,14.46
2018-05-24T05:07:19.234Z,14.43
2018-05-24T05:09:47.654Z,14.45
2018-05-24T05:12:16.084Z,14.54
2018-05-24T05:14:45.373Z,14.55
2018-05-24T05:17:14.491Z,14.66
2018-05-24T05:19:43.667Z,14.73
2018-05-24T05:22:12.102Z,14.82
2018-05-24T05:24:40.506Z,14.90
2018-05-24T05:27:08.945Z,14.87
2018-05-24T05:29:37.369Z,14.91
2018-05-24T05:32:05.815Z,14.82
2018-05-24T05:34:34.238Z,14.93
2018-05-24T05:37:02.683Z,14.99
2018-05-24T05:39:31.094Z,14.99
2018-05-24T05:41:59.543Z,14.96
2018-05-24T05:44:28.722Z,15.09
2018-05-24T05:46:57.167Z,15.24
2018-05-24T05:49:25.575Z,15.25
2018-05-24T05:51:54.022Z,15.08
2018-05-24T05:54:22.456Z,15.11
2018-05-24T05:56:50.891Z,15.13
2018-05-24T05:59:19.302Z,15.29
2018-05-24T06:01:47.763Z,15.38
2018-05-24T06:04:16.192Z,15.38
2018-05-24T06:06:44.640Z,15.31
2018-05-24T06:09:13.076Z,15.38
2018-05-24T06:11:41.491Z,15.28
2018-05-24T06:14:09.943Z,15.26
2018-05-24T06:16:38.365Z,15.33
2018-05-24T06:19:06.807Z,15.29
2018-05-24T06:21:35.370Z,15.34
2018-05-24T06:24:04.531Z,15.28
2018-05-24T06:26:32.956Z,15.32
2018-05-24T06:29:01.417Z,15.45
2018-05-24T06:31:29.835Z,15.43
2018-05-24T06:33:58.299Z,15.42
2018-05-24T06:36:26.746Z,15.64
2018-05-24T06:38:55.225Z,15.85
2018-05-24T06:41:24.424Z,15.88
2018-05-24T06:43:52.905Z,15.83
2018-05-24T06:46:22.210Z,15.83
2018-05-24T06:48:51.361Z,15.89
2018-05-24T06:51:19.798Z,15.80
2018-05-24T06:53:48.316Z,15.79
2018-05-24T06:56:17.460Z,15.87
2018-05-24T06:58:46.579Z,15.82
2018-05-24T07:01:15.768Z,15.85
2018-05-24T07:03:44.230Z,15.87
2018-05-24T07:06:12.658Z,15.93
2018-05-24T07:08:41.865Z,15.92
2018-05-24T07:11:10.355Z,15.92
2018-05-24T07:13:38.776Z,15.95
2018-05-24T07:16:07.200Z,15.89
2018-05-24T07:18:35.685Z,15.81
2018-05-24T07:21:04.100Z,15.91
2018-05-24T07:23:32.549Z,16.04
2018-05-24T07:26:00.992Z,15.94
2018-05-24T07:28:29.430Z,16.05
2018-05-24T07:30:58.609Z,16.18
2018-05-24T07:33:27.068Z,16.21
2018-05-24T07:35:55.486Z,16.36
2018-05-24T07:38:23.952Z,16.35
2018-05-24T07:40:52.376Z,16.26
2018-05-24T07:43:21.597Z,16.33
2018-05-24T07:45:50.026Z,16.52
2018-05-24T07:48:18.481Z,16.53
2018-05-24T07:50:46.899Z,16.48
2018-05-24T07:53:15.372Z,16.47
2018-05-24T07:55:43.794Z,16.45
2018-05-24T07:58:13.061Z,16.49
2018-05-24T08:00:41.486Z,16.55
2018-05-24T08:03:10.718Z,16.59
2018-05-24T08:05:39.179Z,16.54
2018-05-24T08:08:08.432Z,16.64
2018-05-24T08:10:36.876Z,16.72
2018-05-24T08:13:05.333Z,16.79
2018-05-24T08:15:34.520Z,16.82
2018-05-24T08:18:02.979Z,16.93
2018-05-24T08:20:31.407Z,16.98
2018-05-24T08:22:59.810Z,17.03
2018-05-24T08:25:28.283Z,17.21
2018-05-24T08:27:57.485Z,17.37
2018-05-24T08:30:26.700Z,17.62
2018-05-24T08:32:55.116Z,17.87
2018-05-24T08:35:23.579Z,18.17
2018-05-24T08:37:52.000Z,18.38
2018-05-24T08:40:20.448Z,18.47
2018-05-24T08:42:48.868Z,18.23
2018-05-24T08:45:17.440Z,18.54
2018-05-24T08:47:45.865Z,18.68
2018-05-24T08:50:15.078Z,18.76
2018-05-24T08:52:44.272Z,18.82
2018-05-24T08:55:12.718Z,18.80
2018-05-24T08:57:41.167Z,18.80
2018-05-24T09:00:09.610Z,18.81
2018-05-24T09:02:38.057Z,19.05
2018-05-24T09:05:06.518Z,19.22
2018-05-24T09:07:34.974Z,19.32
2018-05-24T09:10:03.428Z,19.31
2018-05-24T09:12:31.893Z,19.48
2018-05-24T09:15:00.343Z,19.57
2018-05-24T09:17:29.545Z,19.56
2018-05-24T09:19:58.760Z,19.39
2018-05-24T09:22:27.995Z,19.41
2018-05-24T09:24:56.442Z,19.48
2018-05-24T09:27:25.690Z,19.40
2018-05-24T09:29:54.139Z,19.55
2018-05-24T09:32:22.697Z,20.01
2018-05-24T09:34:51.923Z,20.39
2018-05-24T09:37:20.452Z,20.58
2018-05-24T09:39:48.896Z,20.91
2018-05-24T09:42:17.414Z,21.07
2018-05-24T09:44:45.788Z,21.36
2018-05-24T09:47:14.338Z,21.41
2018-05-24T09:49:43.536Z,21.55
2018-05-24T09:52:12.715Z,21.56
2018-05-24T09:54:41.169Z,21.68
2018-05-24T09:57:09.584Z,21.63
2018-05-24T09:59:38.027Z,21.65
2018-05-24T10:02:06.437Z,21.84
2018-05-24T10:04:34.958Z,21.98
2018-05-24T10:07:03.331Z,22.26
2018-05-24T10:09:31.795Z,22.68
2018-05-24T10:12:00.206Z,22.87
2018-05-24T10:14:29.432Z,23.03
2018-05-24T10:16:58.604Z,23.06
2018-05-24T10:19:27.064Z,23.09
2018-05-24T10:21:55.474Z,23.07
2018-05-24T10:24:23.943Z,22.95
2018-05-24T10:26:52.364Z,23.18
2018-05-24T10:29:21.638Z,23.22
2018-05-24T10:31:50.035Z,23.03
2018-05-24T10:34:19.224Z,22.99
2018-05-24T10:36:47.697Z,22.80
2018-05-24T10:39:16.118Z,22.48
2018-05-24T10:41:45.328Z,22.43
2018-05-24T10:44:14.512Z,22.38
2018-05-24T10:46:42.970Z,22.27
2018-05-24T10:49:11.967Z,21.85
2018-05-24T10:51:40.420Z,21.40
2018-05-24T10:54:08.876Z,21.23
2018-05-24T10:56:37.438Z,21.02
2018-05-24T10:59:06.573Z,20.84
2018-05-24T11:01:35.451Z,20.57
2018-05-24T11:04:04.641Z,20.59
2018-05-24T11:06:33.102Z,20.40
2018-05-24T11:09:01.525Z,20.27
2018-05-24T11:11:30.756Z,19.93
2018-05-24T11:13:59.191Z,19.95
2018-05-24T11:16:28.220Z,19.76
2018-05-24T11:18:57.385Z,19.63
2018-05-24T11:21:25.840Z,19.44
2018-05-24T11:23:54.235Z,19.36
2018-05-24T11:26:22.756Z,19.39
2018-05-24T11:28:51.119Z,19.51
2018-05-24T11:31:19.577Z,19.46
2018-05-24T11:33:47.988Z,19.71
2018-05-24T11:36:16.434Z,19.57
2018-05-24T11:38:44.864Z,19.74
2018-05-24T11:41:13.314Z,20.00
2018-05-24T11:43:41.728Z,20.26
2018-05-24T11:46:10.176Z,20.48
2018-05-24T11:48:38.608Z,20.67
2018-05-24T11:51:07.083Z,20.74
2018-05-24T11:53:35.515Z,21.11
2018-05-24T11:56:03.970Z,21.20
2018-05-24T11:58:33.147Z,21.45
2018-05-24T12:01:02.505Z,21.16
2018-05-24T12:03:30.906Z,21.54
2018-05-24T12:05:59.355Z,21.56
2018-05-24T12:08:28.531Z,21.73
2018-05-24T12:10:56.973Z,21.73
2018-05-24T12:13:25.390Z,21.97
2018-05-24T12:15:53.846Z,22.12
2018-05-24T12:18:22.257Z,22.38
2018-05-24T12:20:50.705Z,22.37
2018-05-24T12:23:19.888Z,22.35
2018-05-24T12:25:49.158Z,22.23
2018-05-24T12:28:17.578Z,22.20
2018-05-24T12:30:46.006Z,22.14
2018-05-24T12:33:14.473Z,21.91
2018-05-24T12:35:42.981Z,21.94
2018-05-24T12:38:11.395Z,21.69
2018-05-24T12:40:39.825Z,21.65
2018-05-24T12:43:08.275Z,21.79
2018-05-24T12:45:37.456Z,21.71
2018-05-24T12:48:05.903Z,21.91
2018-05-24T12:50:34.315Z,21.89
2018-05-24T12:53:02.783Z,21.53
2018-05-24T12:55:31.198Z,21.59
2018-05-24T12:57:59.641Z,21.68
2018-05-24T13:00:28.054Z,21.61
2018-05-24T13:02:56.518Z,21.37
2018-05-24T13:05:24.930Z,21.21
2018-05-24T13:07:53.393Z,21.05
2018-05-24T13:10:22.156Z,20.94
2018-05-24T13:12:50.602Z,20.96
2018-05-24T13:15:19.784Z,20.70
2018-05-24T13:17:48.243Z,20.24
2018-05-24T13:20:16.655Z,19.85
2018-05-24T13:22:45.108Z,19.64
2018-05-24T13:25:13.511Z,19.50
2018-05-24T13:27:41.967Z,19.29
2018-05-24T13:30:10.401Z,19.08
2018-05-24T13:32:38.843Z,18.87
2018-05-24T13:35:07.263Z,18.73
2018-05-24T13:37:35.798Z,18.55
2018-05-24T13:40:04.252Z,18.30
2018-05-24T13:42:33.524Z,18.14
2018-05-24T13:45:01.958Z,18.22
2018-05-24T13:47:30.429Z,18.19
2018-05-24T13:49:59.599Z,18.14
2018-05-24T13:52:28.127Z,18.00
2018-05-24T13:54:57.301Z,17.93
2018-05-24T13:57:46.447Z,17.84
2018-05-24T14:00:14.852Z,17.81
2018-05-24T14:02:43.285Z,17.83
2018-05-24T14:05:11.678Z,17.82
2018-05-24T14:07:40.164Z,17.72
2018-05-24T14:10:08.590Z,17.55
2018-05-24T14:12:37.020Z,17.48
2018-05-24T14:15:05.461Z,17.46
2018-05-24T14:17:33.939Z,17.38
2018-05-24T14:20:02.335Z,17.25
2018-05-24T14:22:31.565Z,17.25
2018-05-24T14:24:59.980Z,17.28
2018-05-24T14:27:28.438Z,17.25
2018-05-24T14:29:56.834Z,17.31
2018-05-24T14:32:25.324Z,17.32
2018-05-24T14:34:53.735Z,17.39
2018-05-24T14:37:22.179Z,17.48
2018-05-24T14:39:50.581Z,17.35
2018-05-24T14:42:19.016Z,17.31
2018-05-24T14:44:48.185Z,17.39
2018-05-24T14:47:16.637Z,17.37
2018-05-24T14:49:45.034Z,17.42
2018-05-24T14:52:13.435Z,17.45
2018-05-24T14:54:41.876Z,17.48
2018-05-24T14:57:10.273Z,17.51
2018-05-24T14:59:38.704Z,17.57
2018-05-24T15:02:07.113Z,17.69
2018-05-24T15:04:35.532Z,17.64
2018-05-24T15:07:03.931Z,17.69
2018-05-24T15:09:32.357Z,17.77
2018-05-24T15:12:01.522Z,17.80
2018-05-24T15:14:29.956Z,17.84
2018-05-24T15:16:58.540Z,17.95
2018-05-24T15:19:26.988Z,18.14
2018-05-24T15:21:55.413Z,18.19
2018-05-24T15:24:23.877Z,18.23
2018-05-24T15:26:53.062Z,18.20
2018-05-24T15:29:21.501Z,18.34
2018-05-24T15:31:49.934Z,18.44
2018-05-24T15:34:18.394Z,18.82
2018-05-24T15:36:46.823Z,18.84
2018-05-24T15:39:16.028Z,18.67
2018-05-24T15:41:44.469Z,18.60
2018-05-24T15:44:12.924Z,18.58
2018-05-24T15:46:41.360Z,18.60
2018-05-24T15:49:09.821Z,18.59
2018-05-24T15:51:38.236Z,18.63
2018-05-24T15:54:07.482Z,18.66
2018-05-24T15:56:35.915Z,18.74
2018-05-24T15:59:05.319Z,18.74
2018-05-24T16:01:33.740Z,18.70
2018-05-24T16:04:02.194Z,18.64
2018-05-24T16:06:30.616Z,18.72
2018-05-24T16:08:59.089Z,18.91
2018-05-24T16:11:27.529Z,19.00
2018-05-24T16:13:56.019Z,18.90
2018-05-24T16:16:24.443Z,18.73
2018-05-24T16:18:52.886Z,18.65
2018-05-24T16:21:21.295Z,18.65
2018-05-24T16:23:50.505Z,18.55
2018-05-24T16:26:18.926Z,18.44
2018-05-24T16:28:47.363Z,18.34
2018-05-24T16:31:16.541Z,18.38
2018-05-24T16:33:44.972Z,18.37
2018-05-24T16:36:13.372Z,18.35
2018-05-24T16:38:41.802Z,18.39
2018-05-24T16:41:10.216Z,18.37
2018-05-24T16:43:38.629Z,18.34
2018-05-24T16:46:07.078Z,18.37
2018-05-24T16:48:36.302Z,18.27
2018-05-24T16:51:04.715Z,18.16
2018-05-24T16:53:33.123Z,18.14
2018-05-24T16:56:01.571Z,18.10
2018-05-24T16:58:29.972Z,17.97
2018-05-24T17:00:58.428Z,17.93
2018-05-24T17:03:27.599Z,17.90
2018-05-24T17:05:56.810Z,17.80
2018-05-24T17:08:25.993Z,17.82
2018-05-24T17:10:55.211Z,17.91
2018-05-24T17:13:24.395Z,18.02
2018-05-24T17:15:53.624Z,18.01
2018-05-24T17:18:22.047Z,17.91
2018-05-24T17:20:50.496Z,17.86
2018-05-24T17:23:18.943Z,17.80
2018-05-24T17:25:47.390Z,17.83
2018-05-24T17:28:15.818Z,17.84
2018-05-24T17:30:44.259Z,17.86
2018-05-24T17:33:12.676Z,17.89
2018-05-24T17:35:41.126Z,17.89
2018-05-24T17:38:09.551Z,17.90
2018-05-24T17:40:38.004Z,17.87
2018-05-24T17:43:06.442Z,17.82
2018-05-24T17:45:35.667Z,17.79
2018-05-24T17:48:04.083Z,17.70
2018-05-24T17:50:32.537Z,17.67
2018-05-24T17:53:00.956Z,17.65
2018-05-24T17:55:29.409Z,17.66
2018-05-24T17:57:57.836Z,17.66
2018-05-24T18:00:26.295Z,17.62
2018-05-24T18:02:54.734Z,17.65
2018-05-24T18:05:23.939Z,17.67
2018-05-24T18:07:52.412Z,17.67
2018-05-24T18:10:21.632Z,17.71
2018-05-24T18:12:50.090Z,17.69
2018-05-24T18:15:18.537Z,17.73
2018-05-24T18:17:46.981Z,17.66
2018-05-24T18:20:16.209Z,17.58
2018-05-24T18:22:44.627Z,17.51
2018-05-24T18:25:13.069Z,17.50
2018-05-24T18:27:41.489Z,17.46
2018-05-24T18:30:09.956Z,17.40
2018-05-24T18:32:38.401Z,17.37
2018-05-24T18:35:07.623Z,17.33
2018-05-24T18:37:36.044Z,17.24
2018-05-24T18:40:04.520Z,17.23
2018-05-24T18:42:33.008Z,17.20
2018-05-24T18:45:01.433Z,17.16
2018-05-24T18:47:30.670Z,17.14
2018-05-24T18:49:59.087Z,17.10
2018-05-24T18:52:27.547Z,17.08
2018-05-24T18:54:55.966Z,17.05
2018-05-24T18:57:24.429Z,17.02
2018-05-24T18:59:52.886Z,16.96
2018-05-24T19:02:22.242Z,16.93
2018-05-24T19:04:50.656Z,16.92
2018-05-24T19:07:19.955Z,16.91
2018-05-24T19:09:49.141Z,16.85
2018-05-24T19:12:17.601Z,16.76
2018-05-24T19:14:46.028Z,16.78
2018-05-24T19:17:15.256Z,16.68
2018-05-24T19:19:43.673Z,16.63
2018-05-24T19:22:12.152Z,16.48
2018-05-24T19:24:40.572Z,16.43
2018-05-24T19:27:09.019Z,16.37
2018-05-24T19:29:37.443Z,16.30
2018-05-24T19:32:06.692Z,16.29
2018-05-24T19:34:35.132Z,16.29
2018-05-24T19:37:04.361Z,16.28
2018-05-24T19:39:32.944Z,16.25
2018-05-24T19:42:01.397Z,16.27
2018-05-24T19:44:29.818Z,16.39
2018-05-24T19:46:58.336Z,16.42
2018-05-24T19:49:26.771Z,16.44
2018-05-24T19:51:55.978Z,16.46
2018-05-24T19:54:25.162Z,16.50
2018-05-24T19:56:53.619Z,16.49
2018-05-24T19:59:22.046Z,16.46
2018-05-24T20:01:50.520Z,16.41
2018-05-24T20:04:19.700Z,16.39
2018-05-24T20:06:48.152Z,16.37
2018-05-24T20:09:16.581Z,16.31
2018-05-24T20:11:45.032Z,16.26
2018-05-24T20:14:13.463Z,16.23
2018-05-24T20:16:42.691Z,16.24
2018-05-24T20:19:11.101Z,16.33
2018-05-24T20:21:39.570Z,16.31
2018-05-24T20:24:07.975Z,16.31
2018-05-24T20:26:36.453Z,16.38
2018-05-24T20:29:04.881Z,16.47
2018-05-24T20:31:33.328Z,16.50
2018-05-24T20:34:01.738Z,16.57
2018-05-24T20:36:30.178Z,16.57
2018-05-24T20:38:58.591Z,16.53
2018-05-24T20:41:27.075Z,16.50
2018-05-24T20:43:55.491Z,16.54
2018-05-24T20:46:24.670Z,16.55
2018-05-24T20:48:53.109Z,16.54
2018-05-24T20:51:21.508Z,16.42
2018-05-24T20:53:49.952Z,16.54
2018-05-24T20:56:19.146Z,16.54
2018-05-24T20:58:47.589Z,16.51
2018-05-24T21:01:16.007Z,16.50
2018-05-24T21:03:45.222Z,16.48
2018-05-24T21:06:13.639Z,16.45
2018-05-24T21:08:42.072Z,16.43
2018-05-24T21:11:10.506Z,16.45
2018-05-24T21:13:38.978Z,16.37
2018-05-24T21:16:08.139Z,16.42
2018-05-24T21:18:37.435Z,16.38
2018-05-24T21:21:05.842Z,16.32
2018-05-24T21:23:35.052Z,16.23
2018-05-24T21:26:04.225Z,16.12
2018-05-24T21:28:32.669Z,15.99
2018-05-24T21:31:01.075Z,15.87
2018-05-24T21:33:29.519Z,15.81
2018-05-24T21:35:57.923Z,15.68
2018-05-24T21:38:26.368Z,15.66
2018-05-24T21:40:55.546Z,15.60
2018-05-24T21:43:23.984Z,15.54
2018-05-24T21:45:52.394Z,15.46
2018-05-24T21:48:22.667Z,15.41
2018-05-24T21:50:51.062Z,15.36
2018-05-24T21:53:20.258Z,15.29
2018-05-24T21:55:49.494Z,15.18
2018-05-24T21:58:17.927Z,15.14
2018-05-24T22:00:51.261Z,15.09
2018-05-24T22:03:19.707Z,15.09
2018-05-24T22:05:48.114Z,15.06
2018-05-24T22:08:17.359Z,15.12
2018-05-24T22:10:45.761Z,15.19
2018-05-24T22:13:14.189Z,15.21
2018-05-24T22:15:42.604Z,15.22
2018-05-24T22:18:11.033Z,15.19
2018-05-24T22:20:39.441Z,15.20
2018-05-24T22:23:07.885Z,15.16
2018-05-24T22:25:36.294Z,15.13
2018-05-24T22:28:05.490Z,15.11
2018-05-24T22:30:33.901Z,15.25
2018-05-24T22:33:02.340Z,15.28
2018-05-24T22:35:30.741Z,15.29
2018-05-24T22:37:59.179Z,15.30
2018-05-24T22:40:27.586Z,15.25
2018-05-24T22:42:56.023Z,15.20
2018-05-24T22:45:24.428Z,15.20
2018-05-24T22:47:52.930Z,15.27
2018-05-24T22:50:21.300Z,15.29
2018-05-24T22:52:49.748Z,15.35
2018-05-24T22:55:18.915Z,15.39
2018-05-24T22:57:47.322Z,15.36
2018-05-24T23:00:16.524Z,15.34
2018-05-24T23:02:44.953Z,15.39
2018-05-24T23:05:13.421Z,15.29
2018-05-24T23:07:41.876Z,15.29
2018-05-24T23:10:11.078Z,15.43
2018-05-24T23:12:40.244Z,15.47
2018-05-24T23:15:08.679Z,15.40
2018-05-24T23:17:37.863Z,15.33
2018-05-24T23:20:06.297Z,15.22
2018-05-24T23:22:39.595Z,15.19
2018-05-24T23:25:08.086Z,15.11
2018-05-24T23:27:36.490Z,15.09
2018-05-24T23:30:04.939Z,15.08
2018-05-24T23:32:33.384Z,15.04
2018-05-24T23:35:02.591Z,15.06
2018-05-24T23:37:31.802Z,15.12
2018-05-24T23:40:01.019Z,15.07
2018-05-24T23:42:29.445Z,15.13
2018-05-24T23:44:57.923Z,15.09
2018-05-24T23:47:26.327Z,15.14
2018-05-24T23:49:54.758Z,15.12
2018-05-24T23:52:23.218Z,15.11
2018-05-24T23:54:52.411Z,15.08
2018-05-24T23:57:20.811Z,15.02
2018-05-24T23:59:49.244Z,15.05
